Time;durP1;ratioP1;P1;durP2;ratioP2;P2;SDS_P1;SDS_P2;PMS_P1;PMS_P2;Temp;Humidity;BMP_temperature;BMP_pressure;BME280_temperature;BME280_humidity;BME280_pressure;Samples;Min_cycle;Max_cycle;Signal;HPM_P1;HPM_P2
2022/09/08 00:00:22;;;;;;;;;11.33;9.33;;;;;21.06;58.80;101258.06;146619;593;46020;-81
2022/09/08 00:03:30;;;;;;;;;10.50;8.75;;;;;21.04;59.30;101260.69;146614;685;46012;-79
2022/09/08 00:06:22;;;;;;;;;8.25;7.50;;;;;20.90;59.82;101265.75;146615;600;46010;-78
2022/09/08 00:09:21;;;;;;;;;10.25;10.25;;;;;20.73;59.58;101259.28;146609;598;46017;-79
2022/09/08 00:12:39;;;;;;;;;11.00;10.33;;;;;20.65;59.45;101253.84;146606;598;47014;-80
2022/09/08 00:15:41;;;;;;;;;10.00;10.00;;;;;20.64;60.01;101253.84;146603;616;46911;-81
2022/09/08 00:18:51;;;;;;;;;14.00;12.25;;;;;20.58;59.66;101245.81;146611;619;46020;-80
2022/09/08 00:21:49;;;;;;;;;10.00;9.75;;;;;20.56;59.82;101260.69;146605;565;46016;-88
2022/09/08 00:24:59;;;;;;;;;9.00;9.00;;;;;19.65;59.99;101107.94;146611;585;46021;-79
2022/09/08 00:27:56;;;;;;;;;11.33;10.00;;;;;20.46;60.58;101249.94;146611;586;46016;-88
2022/09/08 00:31:02;;;;;;;;;11.75;9.00;;;;;19.61;61.15;101114.84;146612;593;47014;-83
2022/09/08 00:34:02;;;;;;;;;12.00;11.00;;;;;20.26;62.03;101251.31;146614;614;46016;-83
2022/09/08 00:36:58;;;;;;;;;10.50;10.50;;;;;20.17;61.42;101259.91;146614;654;46020;-75
2022/09/08 00:40:02;;;;;;;;;11.00;9.00;;;;;20.10;61.36;101258.00;146603;569;46017;-82
2022/09/08 00:43:09;;;;;;;;;11.00;10.50;;;;;20.06;61.16;101254.44;146608;683;46020;-80
2022/09/08 00:46:08;;;;;;;;;11.25;10.00;;;;;19.99;62.08;101254.25;146606;599;47013;-81
2022/09/08 00:49:12;;;;;;;;;9.33;9.00;;;;;19.90;62.29;101260.22;146613;631;47010;-80
2022/09/08 00:52:46;;;;;;;;;10.00;9.25;;;;;17.88;62.00;100930.53;146602;691;48013;-79
2022/09/08 00:56:05;;;;;;;;;10.00;9.25;;;;;17.61;62.03;100903.59;146618;673;46020;-80
2022/09/08 00:59:07;;;;;;;;;12.00;10.50;;;;;19.63;62.65;101273.63;146609;604;47012;-81
2022/09/08 01:02:34;;;;;;;;;10.50;10.50;;;;;17.67;61.86;100948.31;146613;566;46020;-79
2022/09/08 01:05:45;;;;;;;;;10.00;9.00;;;;;19.52;62.70;101272.47;146607;702;46016;-80
2022/09/08 01:12:48;;;;;;;;;9.50;8.50;;;;;19.40;62.22;101262.53;146604;655;47012;-81
2022/09/08 01:15:46;;;;;;;;;9.75;9.75;;;;;19.37;62.64;101263.34;146605;574;46021;-84
2022/09/08 01:18:49;;;;;;;;;9.50;9.00;;;;;19.41;62.27;101264.34;146615;617;46012;-81
2022/09/08 01:22:29;;;;;;;;;9.75;9.50;;;;;19.44;61.99;101264.41;146612;622;46010;-79
2022/09/08 01:26:00;;;;;;;;;9.00;9.00;;;;;19.45;61.84;101258.28;146610;602;46914;-78
2022/09/08 01:29:25;;;;;;;;;12.50;11.50;;;;;17.58;61.19;100928.00;146617;631;46020;-84
2022/09/08 01:32:43;;;;;;;;;;;;;;;;;;;;;
2022/09/08 01:35:43;;;;;;;;;12.50;10.75;;;;;19.46;62.30;101241.66;146615;587;46020;-84
2022/09/08 01:38:50;;;;;;;;;9.25;8.75;;;;;19.47;61.96;101245.16;146606;595;46017;-84
2022/09/08 01:41:49;;;;;;;;;8.00;8.00;;;;;19.47;61.89;101255.69;146615;677;46020;-82
2022/09/08 01:44:43;;;;;;;;;13.50;12.00;;;;;19.45;61.85;101249.53;146613;578;46017;-76
2022/09/08 01:47:58;;;;;;;;;8.75;7.25;;;;;17.70;61.28;100951.03;146607;603;46020;-83
2022/09/08 01:51:01;;;;;;;;;10.75;9.00;;;;;19.33;62.58;101242.22;146607;638;46017;-86
2022/09/08 01:53:54;;;;;;;;;10.25;10.00;;;;;19.27;62.19;101240.34;146617;595;46020;-89
2022/09/08 01:57:00;;;;;;;;;10.00;10.00;;;;;19.32;61.93;101241.34;146606;628;46014;-82
2022/09/08 01:59:54;;;;;;;;;9.25;9.25;;;;;19.39;61.94;101239.75;146612;713;46021;-84
2022/09/08 02:02:59;;;;;;;;;10.00;10.00;;;;;19.39;62.49;101245.88;146616;610;46012;-84
2022/09/08 02:05:54;;;;;;;;;9.75;9.25;;;;;19.30;62.53;101235.16;146613;701;46010;-85
2022/09/08 02:09:13;;;;;;;;;13.00;11.75;;;;;17.19;61.85;100891.09;146613;707;46915;-79
2022/09/08 02:12:06;;;;;;;;;10.50;9.00;;;;;19.16;62.93;101236.56;146610;616;47010;-79
2022/09/08 02:15:05;;;;;;;;;9.00;9.00;;;;;19.13;62.64;101236.50;146612;647;47013;-79
2022/09/08 02:18:13;;;;;;;;;10.00;10.00;;;;;19.15;62.66;101233.03;146607;678;46020;-78
2022/09/08 02:21:25;;;;;;;;;10.00;9.00;;;;;19.24;62.21;101239.38;146611;573;46016;-80
2022/09/08 02:24:28;;;;;;;;;9.00;9.00;;;;;19.29;62.14;101225.50;146622;677;46020;-79
2022/09/08 02:27:43;;;;;;;;;12.25;10.50;;;;;19.32;61.88;101228.19;146610;667;47012;-85
2022/09/08 02:30:40;;;;;;;;;9.25;9.00;;;;;19.29;61.59;101221.97;146611;698;47010;-84
2022/09/08 02:33:54;;;;;;;;;;;;;;;;;;;;;
2022/09/08 02:36:47;;;;;;;;;9.00;8.00;;;;;19.21;61.96;101228.78;146613;638;46022;-79
2022/09/08 02:39:50;;;;;;;;;;;;;;;;;;;;;
2022/09/08 02:42:55;;;;;;;;;9.25;9.00;;;;;19.27;61.22;101229.81;146610;676;46020;-79
2022/09/08 02:45:52;;;;;;;;;11.75;11.75;;;;;19.31;61.24;101238.66;146613;569;46016;-79
2022/09/08 02:48:45;;;;;;;;;12.00;11.00;;;;;19.29;61.53;101238.62;146602;606;47010;-78
2022/09/08 02:51:46;;;;;;;;;11.00;9.50;;;;;19.24;61.19;101228.84;146605;650;47012;-80
2022/09/08 02:54:50;;;;;;;;;11.00;9.75;;;;;19.21;61.41;101232.28;146615;570;46020;-81
2022/09/08 02:57:54;;;;;;;;;10.00;9.00;;;;;19.19;61.93;101235.72;146616;662;46012;-79
2022/09/08 03:00:51;;;;;;;;;10.50;9.75;;;;;19.05;61.69;101228.41;146620;570;46020;-80
2022/09/08 03:03:44;;;;;;;;;9.50;9.00;;;;;18.94;61.65;101229.91;146607;646;48012;-81
2022/09/08 03:06:51;;;;;;;;;12.50;10.00;;;;;18.92;61.79;101236.84;146619;678;46021;-77
2022/09/08 03:09:49;;;;;;;;;11.50;9.50;;;;;18.90;62.29;101244.69;146606;613;47012;-76
2022/09/08 03:12:49;;;;;;;;;10.50;9.50;;;;;18.85;62.28;101248.94;146617;663;46021;-78
2022/09/08 03:16:01;;;;;;;;;;;;;;;;;;;;;
2022/09/08 03:19:02;;;;;;;;;10.50;7.75;;;;;18.77;63.03;101249.59;146608;590;46020;-72
2022/09/08 03:22:00;;;;;;;;;10.25;9.75;;;;;18.73;62.82;101255.62;146613;622;46017;-74
2022/09/08 03:25:20;;;;;;;;;11.50;10.25;;;;;16.87;61.88;100938.25;146618;711;46010;-79
2022/09/08 03:28:41;;;;;;;;;11.25;9.50;;;;;16.83;62.19;100932.03;146610;624;46017;-83
2022/09/08 03:31:40;;;;;;;;;12.75;12.75;;;;;18.69;63.40;101265.09;146613;708;48010;-84
2022/09/08 03:34:43;;;;;;;;;11.50;10.75;;;;;18.65;62.92;101268.50;146608;677;47012;-80
2022/09/08 03:37:39;;;;;;;;;9.25;9.25;;;;;18.63;63.08;101264.97;146611;591;47010;-77
2022/09/08 03:40:31;;;;;;;;;13.75;11.25;;;;;18.61;62.97;101267.53;146616;599;46012;-76
2022/09/08 03:43:32;;;;;;;;;9.50;8.50;;;;;18.64;62.67;101270.25;146609;566;47011;-78
2022/09/08 03:46:36;;;;;;;;;8.75;8.75;;;;;18.64;63.03;101258.84;146605;617;48914;-80
2022/09/08 03:49:31;;;;;;;;;10.25;9.25;;;;;18.60;63.16;101260.50;146608;612;46020;-78
2022/09/08 03:52:23;;;;;;;;;11.00;11.00;;;;;18.57;63.30;101260.44;146607;606;46016;-80
2022/09/08 03:55:21;;;;;;;;;12.75;10.75;;;;;18.56;63.00;101257.75;146612;586;46020;-81
2022/09/08 03:58:20;;;;;;;;;12.25;10.25;;;;;18.53;63.05;101250.66;146607;585;47012;-81
2022/09/08 04:01:40;;;;;;;;;12.00;12.00;;;;;18.53;62.63;101244.53;146611;675;47010;-74
2022/09/08 04:04:35;;;;;;;;;13.00;12.75;;;;;18.53;63.07;101250.66;146609;567;46016;-75
2022/09/08 04:07:43;;;;;;;;;13.00;10.75;;;;;18.53;63.06;101255.03;146611;633;46020;-73
2022/09/08 04:10:38;;;;;;;;;11.00;10.00;;;;;18.51;63.63;101249.75;146606;622;46914;-72
2022/09/08 04:13:33;;;;;;;;;14.50;13.00;;;;;18.49;63.64;101253.19;146613;615;46010;-77
2022/09/08 04:16:25;;;;;;;;;14.25;10.75;;;;;18.54;63.61;101257.72;146608;639;46913;-75
2022/09/08 04:19:19;;;;;;;;;11.50;10.50;;;;;18.61;63.48;101250.87;146606;593;46021;-74
2022/09/08 04:22:15;;;;;;;;;12.75;11.75;;;;;18.61;64.00;101254.41;146608;712;47012;-77
2022/09/08 04:25:22;;;;;;;;;13.00;11.50;;;;;18.56;63.33;101260.37;146607;631;46020;-77
2022/09/08 04:28:38;;;;;;;;;10.75;9.50;;;;;18.54;63.43;101262.09;146606;654;46016;-83
2022/09/08 04:31:46;;;;;;;;;13.00;12.50;;;;;18.54;63.83;101262.97;146612;581;47014;-78
2022/09/08 04:34:47;;;;;;;;;11.00;10.00;;;;;18.54;63.54;101276.09;146602;575;47012;-77
2022/09/08 04:37:47;;;;;;;;;14.00;12.25;;;;;18.50;63.72;101268.06;146610;565;47010;-79
2022/09/08 04:40:50;;;;;;;;;13.00;11.75;;;;;18.62;64.31;101287.69;146604;592;46016;-79
2022/09/08 04:43:54;;;;;;;;;12.00;11.50;;;;;16.83;63.57;100952.13;146609;594;46020;-79
2022/09/08 04:46:49;;;;;;;;;14.75;14.75;;;;;19.06;64.64;101285.38;146604;564;47012;-77
2022/09/08 04:49:41;;;;;;;;;13.50;12.75;;;;;19.62;63.49;101284.97;146608;580;46021;-79
2022/09/08 04:52:42;;;;;;;;;13.75;13.00;;;;;20.36;61.69;101291.88;146608;661;46016;-79
2022/09/08 04:55:46;;;;;;;;;16.75;13.00;;;;;21.04;59.67;101294.97;146614;723;46020;-80
2022/09/08 04:58:43;;;;;;;;;15.50;14.00;;;;;21.54;58.46;101301.97;146606;583;47012;-80
2022/09/08 05:01:37;;;;;;;;;12.00;11.00;;;;;21.89;56.29;101311.28;146613;584;46020;-79
2022/09/08 05:04:51;;;;;;;;;17.00;15.50;;;;;22.02;55.91;101301.78;146610;615;46017;-79
2022/09/08 05:07:52;;;;;;;;;15.00;13.25;;;;;22.09;55.44;101292.22;146614;634;46020;-76
2022/09/08 05:10:50;;;;;;;;;10.75;10.25;;;;;22.19;54.97;101290.63;146606;587;47013;-75
2022/09/08 05:13:59;;;;;;;;;11.00;11.00;;;;;22.20;55.47;101295.00;146611;596;46020;-75
2022/09/08 05:17:00;;;;;;;;;12.50;11.50;;;;;22.26;55.97;101305.66;146605;633;46016;-73
2022/09/08 05:19:58;;;;;;;;;11.00;10.25;;;;;22.42;55.34;101312.00;146608;668;47010;-81
2022/09/08 05:22:55;;;;;;;;;14.50;14.50;;;;;22.56;55.50;101311.31;146611;593;46914;-76
2022/09/08 05:26:06;;;;;;;;;16.50;15.00;;;;;22.73;54.39;101310.59;146612;639;46020;-83
2022/09/08 05:29:05;;;;;;;;;15.50;14.50;;;;;22.87;54.42;101300.19;146605;636;47014;-83
2022/09/08 05:32:00;;;;;;;;;21.25;16.50;;;;;22.98;53.86;101312.66;146613;572;47010;-80
2022/09/08 05:34:56;;;;;;;;;13.75;13.50;;;;;23.05;53.82;101311.87;146606;674;47014;-80
2022/09/08 05:37:52;;;;;;;;;15.50;13.75;;;;;23.13;54.09;101313.69;146613;578;46020;-81
2022/09/08 05:40:50;;;;;;;;;15.50;14.50;;;;;23.31;54.39;101313.84;146609;603;46017;-81
2022/09/08 05:43:40;;;;;;;;;12.25;11.25;;;;;23.50;54.80;101314.87;146704;575;46023;-81
2022/09/08 05:46:39;;;;;;;;;14.75;13.75;;;;;23.71;53.68;101323.00;146620;712;46016;-83
2022/09/08 05:49:35;;;;;;;;;13.50;12.75;;;;;23.93;52.83;101321.37;146625;667;45048;-83
2022/09/08 05:52:35;;;;;;;;;11.00;10.50;;;;;24.10;52.09;101316.16;146620;697;46012;-79
2022/09/08 05:55:36;;;;;;;;;11.75;11.00;;;;;24.29;52.12;101325.09;146625;648;46010;-74
2022/09/08 05:58:45;;;;;;;;;15.75;14.00;;;;;24.47;52.30;101328.72;146621;579;46016;-78
2022/09/08 06:01:40;;;;;;;;;13.75;13.25;;;;;24.62;51.35;101334.09;146626;647;46010;-79
2022/09/08 06:04:42;;;;;;;;;14.25;12.25;;;;;24.75;49.74;101330.59;146620;658;46017;-77
2022/09/08 06:07:45;;;;;;;;;15.50;13.00;;;;;24.79;50.48;101328.81;146619;572;46010;-85
2022/09/08 06:10:39;;;;;;;;;14.00;13.00;;;;;24.85;50.26;101326.19;146617;648;46016;-86
2022/09/08 06:13:42;;;;;;;;;15.00;14.00;;;;;24.92;50.32;101329.72;146626;643;46010;-89
2022/09/08 06:16:36;;;;;;;;;15.50;15.00;;;;;25.07;50.16;101332.41;146620;684;46014;-90
2022/09/08 06:19:28;;;;;;;;;15.50;14.50;;;;;25.20;50.44;101334.22;146623;570;46020;-88
2022/09/08 06:22:25;;;;;;;;;14.75;12.75;;;;;25.36;48.87;101340.44;146621;677;46012;-74
2022/09/08 06:25:30;;;;;;;;;15.00;15.00;;;;;25.51;49.36;101340.44;146622;570;46020;-82
2022/09/08 06:28:51;;;;;;;;;9.33;9.00;;;;;25.69;49.87;101336.88;146615;575;47915;-82
2022/09/08 06:32:26;;;;;;;;;11.00;10.00;;;;;25.90;50.39;101343.94;146629;671;46010;-82
2022/09/08 06:35:48;;;;;;;;;11.25;11.25;;;;;26.11;49.50;101335.06;146619;702;46016;-83
2022/09/08 06:39:02;;;;;;;;;11.00;10.00;;;;;26.18;48.61;101331.47;146621;672;46020;-83
2022/09/08 06:42:21;;;;;;;;;13.50;12.50;;;;;26.24;48.35;101328.78;146617;575;46016;-84
2022/09/08 06:45:31;;;;;;;;;11.50;11.50;;;;;26.40;49.16;101339.38;146626;670;46021;-81
2022/09/08 06:48:52;;;;;;;;;12.00;12.00;;;;;25.80;49.62;101212.91;146621;639;45915;-83
2022/09/08 06:52:28;;;;;;;;;11.33;10.33;;;;;26.81;48.46;101357.81;146624;592;46010;-82
2022/09/08 06:56:07;;;;;;;;;12.75;12.75;;;;;26.93;47.47;101355.06;146622;596;46016;-83
2022/09/08 06:59:25;;;;;;;;;;;;;;;;;;;;;
2022/09/08 07:03:10;;;;;;;;;13.00;11.75;;;;;27.10;48.41;101359.41;146624;674;45018;-82
2022/09/08 07:06:26;;;;;;;;;14.50;12.50;;;;;27.30;47.84;101369.94;146625;579;46010;-83
2022/09/08 07:09:51;;;;;;;;;12.50;10.00;;;;;27.49;48.59;101360.03;146620;689;46014;-83
2022/09/08 07:13:04;;;;;;;;;12.00;12.00;;;;;27.72;47.96;101375.81;146628;675;45021;-83
2022/09/08 07:16:45;;;;;;;;;10.50;8.75;;;;;27.81;47.01;101379.28;146630;708;45016;-83
2022/09/08 07:19:58;;;;;;;;;13.25;11.75;;;;;27.91;46.82;101382.75;146627;716;46011;-81
2022/09/08 07:23:05;;;;;;;;;14.25;13.25;;;;;27.95;46.00;101383.63;146619;657;46914;-81
2022/09/08 07:26:24;;;;;;;;;11.75;9.50;;;;;27.99;46.34;101375.56;146621;688;46021;-82
2022/09/08 07:29:27;;;;;;;;;17.00;13.75;;;;;28.11;45.85;101390.56;146620;681;46012;-82
2022/09/08 07:32:54;;;;;;;;;12.75;12.25;;;;;28.19;47.10;101382.47;146626;597;46020;-84
2022/09/08 07:36:56;;;;;;;;;11.75;11.75;;;;;28.36;46.01;101390.28;146621;642;46014;-82
2022/09/08 07:40:39;;;;;;;;;13.50;13.00;;;;;28.44;45.68;101381.34;146623;563;46020;-82
2022/09/08 07:43:33;;;;;;;;;12.00;12.00;;;;;28.60;42.21;101397.13;146622;619;46912;-82
2022/09/08 07:47:06;;;;;;;;;11.25;11.00;;;;;28.62;46.23;101393.53;146624;599;46010;-84
2022/09/08 07:50:57;;;;;;;;;12.25;12.25;;;;;28.78;46.20;101392.44;146619;572;46014;-83
2022/09/08 07:54:37;;;;;;;;;13.50;11.75;;;;;28.99;44.62;101406.37;146627;569;46010;-83
2022/09/08 07:58:18;;;;;;;;;6.00;6.00;;;;;29.06;42.81;101392.06;146624;588;46016;-84
2022/09/08 08:01:52;;;;;;;;;10.00;8.25;;;;;29.06;44.06;101389.41;146631;684;46020;-88
2022/09/08 08:05:18;;;;;;;;;9.75;9.75;;;;;29.07;42.67;101393.84;146623;620;46014;-83
2022/09/08 08:08:50;;;;;;;;;11.25;10.75;;;;;29.01;45.15;101393.94;146628;570;46014;-77
2022/09/08 08:12:26;;;;;;;;;9.50;8.50;;;;;28.94;45.51;101397.56;146621;648;46017;-78
2022/09/08 08:15:49;;;;;;;;;8.67;7.33;;;;;28.93;43.49;101402.00;146630;630;46020;-80
2022/09/08 08:19:13;;;;;;;;;8.33;8.00;;;;;28.94;44.27;101400.22;146622;571;47913;-79
2022/09/08 08:22:47;;;;;;;;;6.25;6.25;;;;;28.20;44.28;101278.47;146633;684;46014;-83
2022/09/08 08:26:17;;;;;;;;;10.75;10.75;;;;;28.87;44.19;101393.22;146616;573;46017;-82
2022/09/08 08:29:48;;;;;;;;;8.25;7.25;;;;;29.03;43.29;101396.56;146634;692;46010;-84
2022/09/08 08:33:13;;;;;;;;;11.75;8.50;;;;;29.15;43.45;101402.63;146626;569;46017;-83
2022/09/08 08:36:29;;;;;;;;;11.00;8.25;;;;;29.33;43.50;101393.44;146630;642;46010;-81
2022/09/08 08:39:29;;;;;;;;;9.33;9.00;;;;;29.55;42.28;101398.44;146625;707;46017;-80
2022/09/08 08:43:18;;;;;;;;;;;;;;;;;;;;;
2022/09/08 08:46:52;;;;;;;;;8.25;7.75;;;;;29.63;44.29;101391.22;146624;698;46016;-83
2022/09/08 08:50:15;;;;;;;;;9.75;9.50;;;;;29.69;43.31;101397.34;146628;572;46020;-82
2022/09/08 08:53:53;;;;;;;;;9.50;8.50;;;;;29.58;43.82;101367.19;146623;712;45018;-82
2022/09/08 08:57:08;;;;;;;;;10.00;10.00;;;;;29.79;42.78;101398.06;146629;604;46020;-82
2022/09/08 09:00:34;;;;;;;;;9.67;8.67;;;;;29.83;43.04;101388.19;146620;647;46016;-80
2022/09/08 09:04:21;;;;;;;;;9.33;9.33;;;;;29.79;43.12;101384.69;146628;589;46021;-82
2022/09/08 09:08:11;;;;;;;;;9.25;9.25;;;;;29.82;43.90;101387.31;146622;566;46012;-81
2022/09/08 09:11:55;;;;;;;;;8.50;8.50;;;;;29.87;43.48;101366.69;146626;625;46021;-82
2022/09/08 09:15:30;;;;;;;;;8.00;8.00;;;;;29.98;43.71;101368.31;146624;570;46014;-79
2022/09/08 09:19:05;;;;;;;;;10.50;10.25;;;;;30.03;42.79;101369.09;146625;590;46021;-84
2022/09/08 09:23:00;;;;;;;;;9.50;8.00;;;;;30.03;42.75;101363.75;146624;626;46016;-81
2022/09/08 09:26:40;;;;;;;;;9.00;9.00;;;;;29.39;43.51;101224.16;146633;650;46011;-82
2022/09/08 09:29:57;;;;;;;;;9.75;9.75;;;;;30.17;42.81;101342.09;146626;665;46012;-77
2022/09/08 09:33:34;;;;;;;;;9.00;6.50;;;;;30.17;43.20;101347.44;146630;693;46021;-82
2022/09/08 09:37:04;;;;;;;;;8.00;8.00;;;;;30.17;42.55;101348.31;146625;594;46014;-82
2022/09/08 09:40:26;;;;;;;;;6.33;5.33;;;;;30.20;41.67;101332.25;146631;663;46021;-82
2022/09/08 09:44:02;;;;;;;;;7.67;6.33;;;;;30.24;40.73;101336.59;146624;620;47012;-81
2022/09/08 09:47:50;;;;;;;;;7.75;7.25;;;;;30.20;42.24;101332.25;146629;617;46021;-81
2022/09/08 09:51:29;;;;;;;;;8.50;7.25;;;;;29.35;41.28;101180.62;146624;666;46018;-81
2022/09/08 09:55:13;;;;;;;;;10.00;8.25;;;;;29.32;42.59;101175.31;146627;704;46010;-82
2022/09/08 09:58:33;;;;;;;;;8.75;8.75;;;;;30.09;41.90;101308.37;146625;646;46018;-78
2022/09/08 10:01:56;;;;;;;;;8.00;8.00;;;;;30.06;42.18;101307.53;146628;683;46020;-76
2022/09/08 10:05:30;;;;;;;;;10.00;9.33;;;;;30.08;40.98;101308.37;146623;684;46012;-82
2022/09/08 10:09:13;;;;;;;;;8.50;8.50;;;;;29.39;41.29;101173.41;146628;632;46010;-82
2022/09/08 10:12:50;;;;;;;;;8.00;7.00;;;;;29.61;39.60;101209.50;146624;681;46016;-80
2022/09/08 10:16:35;;;;;;;;;7.25;7.25;;;;;30.20;40.76;101302.81;146622;574;46020;-82
2022/09/08 10:20:15;;;;;;;;;7.00;7.00;;;;;30.11;38.86;101300.28;146626;588;46012;-78
2022/09/08 10:24:05;;;;;;;;;8.25;8.25;;;;;29.18;40.81;101162.22;146624;563;46020;-80
2022/09/08 10:27:38;;;;;;;;;7.50;6.00;;;;;29.98;42.15;101296.12;146626;663;46016;-77
2022/09/08 10:31:00;;;;;;;;;7.50;7.50;;;;;29.99;40.97;101284.50;146627;570;46010;-77
2022/09/08 10:34:49;;;;;;;;;8.75;8.75;;;;;29.23;40.18;101143.47;146624;603;46016;-76
2022/09/08 10:38:37;;;;;;;;;9.00;8.00;;;;;30.08;40.32;101279.84;146626;648;46020;-82
2022/09/08 10:42:02;;;;;;;;;8.75;8.75;;;;;30.05;39.95;101279.03;146625;571;46016;-78
2022/09/08 10:45:19;;;;;;;;;8.67;7.67;;;;;30.04;39.80;101266.59;146628;570;46020;-77
2022/09/08 10:48:46;;;;;;;;;8.75;8.00;;;;;30.07;40.25;101269.19;146626;653;46012;-78
2022/09/08 10:52:21;;;;;;;;;8.00;7.33;;;;;28.72;39.26;101021.59;146627;690;47020;-79
2022/09/08 10:55:36;;;;;;;;;8.00;7.67;;;;;30.14;39.58;101262.78;146627;605;46016;-79
2022/09/08 10:59:27;;;;;;;;;7.00;7.00;;;;;29.12;38.49;101100.03;146628;591;46014;-77
2022/09/08 11:03:04;;;;;;;;;10.75;10.75;;;;;28.70;39.56;101026.06;146623;673;46013;-82
2022/09/08 11:06:39;;;;;;;;;6.33;5.00;;;;;29.33;40.15;101112.09;146631;626;46020;-77
2022/09/08 11:10:08;;;;;;;;;6.75;6.75;;;;;30.21;39.24;101259.09;146624;575;46012;-84
2022/09/08 11:13:41;;;;;;;;;9.00;8.00;;;;;30.21;40.68;101248.41;146627;671;46020;-78
2022/09/08 11:17:24;;;;;;;;;10.33;9.67;;;;;29.88;41.16;101200.06;146628;571;46017;-90
2022/09/08 11:20:59;;;;;;;;;10.00;8.33;;;;;30.08;40.45;101246.87;146631;635;46010;-91
2022/09/08 11:24:26;;;;;;;;;6.00;5.33;;;;;29.84;41.66;101256.28;146626;571;46015;-83
2022/09/08 11:27:42;;;;;;;;;11.00;8.67;;;;;29.66;42.35;101253.06;146625;564;46010;-88
2022/09/08 11:30:52;;;;;;;;;8.00;7.50;;;;;29.61;36.53;101254.94;146627;664;46012;-83
2022/09/08 11:34:31;;;;;;;;;9.00;7.00;;;;;29.62;39.71;101258.50;146629;577;46020;-83
2022/09/08 11:38:21;;;;;;;;;9.50;9.25;;;;;28.80;38.99;101132.66;146624;578;46012;-85
2022/09/08 11:41:45;;;;;;;;;7.75;6.75;;;;;29.45;39.86;101256.12;146627;594;46020;-84
2022/09/08 11:45:05;;;;;;;;;9.00;7.75;;;;;29.56;39.82;101256.78;146622;571;46016;-87
2022/09/08 11:48:59;;;;;;;;;9.50;8.00;;;;;28.28;42.25;101015.22;146626;574;46021;-89
2022/09/08 11:52:32;;;;;;;;;9.25;8.50;;;;;28.95;42.96;101114.56;146620;652;46016;-87
2022/09/08 11:56:10;;;;;;;;;;;;;;;;;;;;;
2022/09/08 11:59:44;;;;;;;;;9.00;9.00;;;;;30.10;40.31;101253.09;146624;575;46016;-84
2022/09/08 12:03:50;;;;;;;;;9.75;8.75;;;;;29.33;41.36;101114.78;146627;566;46010;-86
2022/09/08 12:07:23;;;;;;;;;9.75;9.50;;;;;30.14;39.43;101252.09;146624;706;46014;-84
2022/09/08 12:11:01;;;;;;;;;10.50;10.25;;;;;29.93;39.14;101213.31;146625;574;46020;-81
2022/09/08 12:14:41;;;;;;;;;7.33;6.33;;;;;30.06;39.14;101243.34;146625;620;46915;-91
2022/09/08 12:18:24;;;;;;;;;12.00;10.50;;;;;29.22;40.31;101099.84;146626;627;46010;-90
2022/09/08 12:22:25;;;;;;;;;;;;;;;;;;;;;
2022/09/08 12:26:06;;;;;;;;;7.25;7.00;;;;;28.63;42.12;100995.09;146631;563;46010;-91
2022/09/08 12:29:48;;;;;;;;;11.00;10.25;;;;;29.23;41.62;101098.06;146621;570;46016;-88
2022/09/08 12:33:17;;;;;;;;;9.00;8.00;;;;;30.08;41.82;101249.56;146627;619;46021;-89
2022/09/08 12:36:46;;;;;;;;;11.75;10.75;;;;;30.08;42.51;101252.22;146618;690;46032;-86
2022/09/08 12:40:37;;;;;;;;;10.25;8.75;;;;;30.04;41.68;101253.22;146623;730;46010;-87
2022/09/08 12:43:47;;;;;;;;;10.25;8.50;;;;;30.05;43.04;101250.50;146621;616;46012;-91
2022/09/08 12:47:43;;;;;;;;;8.33;8.33;;;;;29.21;42.74;101115.88;146627;570;46014;-88
2022/09/08 12:51:14;;;;;;;;;11.00;10.00;;;;;29.96;42.92;101252.47;146624;603;46014;-86
2022/09/08 12:55:04;;;;;;;;;10.33;10.33;;;;;29.82;43.90;101252.78;146627;577;46014;-90
2022/09/08 12:58:25;;;;;;;;;12.67;11.00;;;;;29.84;44.09;101246.47;146619;658;46016;-86
2022/09/08 13:02:00;;;;;;;;;10.33;10.33;;;;;29.11;42.00;101119.66;146632;600;46021;-83
2022/09/08 13:05:29;;;;;;;;;9.25;8.75;;;;;29.60;42.89;101241.59;146620;663;46012;-88
2022/09/08 13:08:58;;;;;;;;;9.67;9.67;;;;;29.57;44.84;101236.31;146632;599;46010;-86
2022/09/08 13:12:27;;;;;;;;;9.00;9.00;;;;;28.90;44.60;101115.56;146623;623;46012;-88
2022/09/08 13:15:47;;;;;;;;;9.33;8.67;;;;;29.56;44.45;101227.38;146626;580;46021;-86
2022/09/08 13:19:34;;;;;;;;;10.00;8.33;;;;;28.89;45.12;101120.03;146621;639;47014;-85
2022/09/08 13:22:55;;;;;;;;;8.00;8.00;;;;;29.47;44.87;101224.88;146629;657;45030;-85
2022/09/08 13:26:18;;;;;;;;;8.67;8.33;;;;;29.36;45.49;101235.78;146628;678;46014;-85
2022/09/08 13:30:01;;;;;;;;;8.33;8.00;;;;;28.55;46.03;101071.72;146629;571;46020;-72
2022/09/08 13:33:31;;;;;;;;;9.00;9.00;;;;;29.48;45.77;101225.78;146623;622;46016;-83
2022/09/08 13:37:10;;;;;;;;;7.75;7.75;;;;;29.43;45.70;101215.19;146627;619;46010;-78
2022/09/08 13:40:43;;;;;;;;;10.75;9.75;;;;;29.40;45.73;101207.22;146620;569;46016;-75
2022/09/08 13:44:19;;;;;;;;;9.75;9.75;;;;;29.33;45.35;101197.56;146624;564;46020;-77
2022/09/08 13:47:51;;;;;;;;;8.00;8.00;;;;;29.31;45.94;101186.91;146629;569;46012;-78
2022/09/08 13:51:26;;;;;;;;;9.00;8.33;;;;;28.47;45.27;101047.81;146629;579;46010;-79
2022/09/08 13:55:00;;;;;;;;;7.25;7.25;;;;;29.30;45.38;101192.28;146621;581;46016;-77
2022/09/08 13:58:30;;;;;;;;;8.50;8.50;;;;;29.20;44.20;101184.44;146629;572;46014;-80
2022/09/08 14:01:47;;;;;;;;;8.25;8.25;;;;;28.94;45.83;101192.00;146625;629;46016;-78
2022/09/08 14:05:00;;;;;;;;;9.50;8.00;;;;;28.74;46.76;101189.69;146624;705;46010;-80
2022/09/08 14:08:00;;;;;;;;;9.50;9.50;;;;;28.68;46.70;101184.44;146623;569;46016;-80
2022/09/08 14:11:29;;;;;;;;;8.00;8.00;;;;;28.72;46.62;101181.72;146631;564;45020;-82
2022/09/08 14:15:03;;;;;;;;;7.75;7.25;;;;;28.77;45.55;101178.94;146623;566;46013;-81
2022/09/08 14:18:38;;;;;;;;;8.75;8.75;;;;;28.78;45.89;101180.69;146630;597;46010;-81
2022/09/08 14:22:20;;;;;;;;;9.25;9.00;;;;;28.77;46.07;101190.50;146621;689;46017;-80
2022/09/08 14:25:42;;;;;;;;;9.75;7.50;;;;;28.16;46.13;101076.75;146630;582;46020;-77
2022/09/08 14:28:45;;;;;;;;;9.50;7.75;;;;;28.71;45.53;101179.06;146623;575;46913;-81
2022/09/08 14:32:13;;;;;;;;;8.00;7.00;;;;;28.52;46.21;101173.13;146629;586;46020;-82
2022/09/08 14:35:36;;;;;;;;;9.00;8.00;;;;;27.58;46.40;101016.31;146628;577;46012;-79
2022/09/08 14:39:06;;;;;;;;;7.75;7.00;;;;;28.42;46.27;101155.53;146627;613;46021;-79
2022/09/08 14:42:29;;;;;;;;;6.00;6.00;;;;;27.60;45.47;101017.16;146625;629;46016;-78
2022/09/08 14:45:47;;;;;;;;;8.50;8.25;;;;;28.43;46.16;101154.59;146625;690;46011;-79
2022/09/08 14:49:33;;;;;;;;;8.50;8.50;;;;;28.47;45.20;101149.19;146623;686;46016;-83
2022/09/08 14:53:16;;;;;;;;;8.75;8.75;;;;;28.41;44.69;101143.06;146630;654;46021;-81
2022/09/08 14:56:36;;;;;;;;;9.25;7.50;;;;;28.27;45.04;101138.81;146618;563;46913;-82
2022/09/08 14:59:40;;;;;;;;;10.00;8.25;;;;;28.20;45.94;101147.81;146624;656;46021;-77
2022/09/08 15:02:52;;;;;;;;;10.25;8.50;;;;;28.24;45.51;101145.97;146624;643;46012;-80
2022/09/08 15:05:57;;;;;;;;;8.25;8.25;;;;;28.29;46.13;101142.34;146626;644;46010;-77
2022/09/08 15:08:52;;;;;;;;;8.25;8.25;;;;;28.33;45.86;101153.84;146625;653;46016;-76
2022/09/08 15:11:50;;;;;;;;;10.50;7.25;;;;;28.33;45.84;101149.37;146627;625;46020;-80
2022/09/08 15:15:42;;;;;;;;;7.00;7.00;;;;;27.87;46.18;101082.53;146626;665;46030;-84
2022/09/08 15:18:45;;;;;;;;;9.50;8.50;;;;;28.24;45.75;101151.31;146628;586;46030;-72
2022/09/08 15:21:59;;;;;;;;;9.75;8.75;;;;;28.20;46.21;101157.59;146619;602;46032;-73
2022/09/08 15:25:27;;;;;;;;;;;;;;;;;;;;;
2022/09/08 15:28:46;;;;;;;;;9.00;7.50;;;;;28.12;46.71;101147.03;146621;617;46016;-78